Time;durP1;ratioP1;P1;durP2;ratioP2;P2;SDS_P1;SDS_P2;PMS_P1;PMS_P2;Temp;Humidity;BMP_temperature;BMP_pressure;BME280_temperature;BME280_humidity;BME280_pressure;Samples;Min_cycle;Max_cycle;Signal;HPM_P1;HPM_P2
2023/01/01 02:38:33;;;;;;;7.72;3.78;;;;;;;;;;5015918;28;20036;-87
2023/01/01 02:41:25;;;;;;;8.77;3.80;;;;;;;;;;5014648;28;20025;-86
2023/01/01 02:43:52;;;;;;;7.15;4.20;;;;;;;;;;4996583;28;20085;-86
2023/01/01 02:46:17;;;;;;;9.02;4.45;;;;;;;;;;5013052;28;20057;-84
2023/01/01 02:48:48;;;;;;;7.80;4.10;;;;;;;;;;5014729;28;20502;-84
2023/01/01 02:51:13;;;;;;;6.88;4.18;;;;;;;;;;5015464;28;20073;-86
2023/01/01 02:53:58;;;;;;;7.75;4.40;;;;;;;;;;5015373;28;20034;-86
2023/01/01 02:56:33;;;;;;;9.80;4.75;;;;;;;;;;5013970;28;20076;-85
2023/01/01 03:02:26;;;;;;;9.27;4.47;;;;;;;;;;5015105;28;20033;-82
2023/01/01 03:04:55;;;;;;;7.18;4.47;;;;;;;;;;5014425;28;20057;-86
2023/01/01 03:07:28;;;;;;;7.80;4.40;;;;;;;;;;5014834;28;20399;-84
2023/01/01 03:10:00;;;;;;;7.60;4.30;;;;;;;;;;5014613;28;20060;-85
2023/01/01 03:12:43;;;;;;;8.40;4.60;;;;;;;;;;5020607;28;20030;-84
2023/01/01 03:15:13;;;;;;;8.10;4.78;;;;;;;;;;5011532;28;20040;-86
2023/01/01 03:17:49;;;;;;;7.70;4.70;;;;;;;;;;4994830;28;20121;-87
2023/01/01 03:20:26;;;;;;;9.32;5.47;;;;;;;;;;5012290;28;20460;-86
2023/01/01 03:22:56;;;;;;;9.07;4.72;;;;;;;;;;5012102;28;20034;-86
2023/01/01 03:25:25;;;;;;;9.18;4.78;;;;;;;;;;5011252;28;20076;-86
2023/01/01 03:27:56;;;;;;;7.78;4.63;;;;;;;;;;5012053;28;20030;-84
2023/01/01 03:30:23;;;;;;;9.70;4.78;;;;;;;;;;5010775;28;20037;-85
2023/01/01 03:33:06;;;;;;;7.00;4.22;;;;;;;;;;5012015;28;20076;-85
2023/01/01 03:35:37;;;;;;;6.88;4.45;;;;;;;;;;5010098;28;20091;-86
2023/01/01 03:38:09;;;;;;;7.95;4.47;;;;;;;;;;5012184;28;20025;-86
2023/01/01 03:40:38;;;;;;;9.07;4.55;;;;;;;;;;5010585;28;20088;-86
2023/01/01 03:43:20;;;;;;;7.07;4.50;;;;;;;;;;5024070;28;20042;-85
2023/01/01 03:45:49;;;;;;;7.72;4.32;;;;;;;;;;5012852;28;20490;-84
2023/01/01 03:48:15;;;;;;;8.18;4.40;;;;;;;;;;4995841;28;20518;-84
2023/01/01 03:50:57;;;;;;;7.95;4.78;;;;;;;;;;5013698;28;20069;-83
2023/01/01 03:53:40;;;;;;;7.18;4.40;;;;;;;;;;5013404;28;20037;-85
2023/01/01 03:56:39;;;;;;;10.40;5.40;;;;;;;;;;5013098;28;20104;-86
2023/01/01 03:59:21;;;;;;;8.90;4.50;;;;;;;;;;5013424;28;20084;-84
2023/01/01 04:01:56;;;;;;;9.45;4.97;;;;;;;;;;5012011;28;20157;-85
2023/01/01 04:04:23;;;;;;;7.32;4.38;;;;;;;;;;5012394;28;20061;-86
2023/01/01 04:06:49;;;;;;;7.03;4.38;;;;;;;;;;5013328;28;20120;-84
2023/01/01 04:09:20;;;;;;;8.45;5.38;;;;;;;;;;5012996;28;20076;-86
2023/01/01 04:12:04;;;;;;;9.07;4.75;;;;;;;;;;5020340;28;20104;-86
2023/01/01 04:14:42;;;;;;;7.35;4.40;;;;;;;;;;5010949;28;20076;-85
2023/01/01 04:17:09;;;;;;;8.80;5.00;;;;;;;;;;4973138;28;1089666;-86
2023/01/01 04:19:35;;;;;;;8.50;4.68;;;;;;;;;;5012338;28;20042;-86
2023/01/01 04:22:01;;;;;;;9.57;4.95;;;;;;;;;;5010893;28;20122;-85
2023/01/01 04:24:27;;;;;;;7.82;4.85;;;;;;;;;;5011760;28;20390;-86
2023/01/01 04:26:53;;;;;;;7.82;4.80;;;;;;;;;;5012212;28;20038;-86
2023/01/01 04:29:19;;;;;;;8.88;4.60;;;;;;;;;;5012266;28;20030;-86
2023/01/01 04:31:45;;;;;;;7.78;4.53;;;;;;;;;;5012113;28;20061;-85
2023/01/01 04:34:11;;;;;;;6.75;4.00;;;;;;;;;;5011420;28;20238;-84
2023/01/01 04:36:37;;;;;;;7.47;4.57;;;;;;;;;;5012353;28;20037;-84
2023/01/01 04:39:03;;;;;;;6.78;4.20;;;;;;;;;;5016046;28;20038;-84
2023/01/01 04:41:29;;;;;;;7.78;3.90;;;;;;;;;;5016040;28;20034;-86
2023/01/01 04:43:54;;;;;;;8.07;4.32;;;;;;;;;;5015850;28;20033;-84
2023/01/01 04:46:21;;;;;;;7.18;4.55;;;;;;;;;;5027647;28;20033;-84
2023/01/01 04:48:47;;;;;;;8.85;4.20;;;;;;;;;;5021896;28;20038;-87
2023/01/01 04:51:15;;;;;;;7.47;4.38;;;;;;;;;;5020100;28;20077;-87
2023/01/01 04:53:41;;;;;;;7.60;4.22;;;;;;;;;;5018039;28;20487;-86
2023/01/01 04:56:18;;;;;;;6.78;4.00;;;;;;;;;;5027263;28;20034;-84
2023/01/01 04:58:45;;;;;;;6.80;3.70;;;;;;;;;;5021870;28;20034;-87
2023/01/01 05:01:19;;;;;;;6.57;3.65;;;;;;;;;;5020890;28;20053;-84
2023/01/01 05:03:45;;;;;;;5.90;3.63;;;;;;;;;;5021409;28;20221;-84
2023/01/01 05:06:12;;;;;;;6.57;3.45;;;;;;;;;;5016685;28;20033;-86
2023/01/01 05:08:40;;;;;;;6.70;3.97;;;;;;;;;;5017623;28;20049;-85
2023/01/01 05:11:10;;;;;;;6.13;3.88;;;;;;;;;;5026052;28;20030;-86
2023/01/01 05:13:37;;;;;;;7.13;3.58;;;;;;;;;;5002505;28;20469;-88
2023/01/01 05:16:08;;;;;;;6.97;3.53;;;;;;;;;;5033662;23;20018;-89
2023/01/01 05:18:35;;;;;;;6.82;4.10;;;;;;;;;;5007298;28;20050;-86
2023/01/01 05:21:02;;;;;;;6.50;4.20;;;;;;;;;;5023086;28;20041;-87
2023/01/01 05:23:28;;;;;;;7.47;4.20;;;;;;;;;;5023303;28;20053;-85
2023/01/01 05:25:54;;;;;;;7.25;4.65;;;;;;;;;;5006248;28;20037;-87
2023/01/01 05:28:20;;;;;;;6.50;4.32;;;;;;;;;;5023276;28;20124;-87
2023/01/01 05:30:46;;;;;;;6.78;4.05;;;;;;;;;;5023737;28;20089;-87
2023/01/01 05:33:12;;;;;;;8.23;4.85;;;;;;;;;;5023631;28;20422;-87
2023/01/01 05:35:38;;;;;;;7.05;4.28;;;;;;;;;;5022714;28;20041;-87
2023/01/01 05:38:03;;;;;;;7.20;4.63;;;;;;;;;;5024065;28;20068;-86
2023/01/01 05:40:29;;;;;;;7.78;4.65;;;;;;;;;;5022635;28;20053;-86
2023/01/01 05:42:55;;;;;;;6.97;4.30;;;;;;;;;;5022106;28;20384;-87
2023/01/01 05:45:21;;;;;;;8.15;4.45;;;;;;;;;;5003858;28;20060;-86
2023/01/01 05:47:46;;;;;;;8.18;4.35;;;;;;;;;;5004082;28;20037;-87
2023/01/01 05:50:12;;;;;;;8.07;4.47;;;;;;;;;;5020462;28;20096;-86
2023/01/01 05:52:37;;;;;;;8.55;4.28;;;;;;;;;;5021923;28;20104;-86
2023/01/01 05:55:03;;;;;;;7.65;4.53;;;;;;;;;;5020069;28;20030;-87
2023/01/01 05:57:29;;;;;;;8.35;5.10;;;;;;;;;;5020975;28;20125;-88
2023/01/01 05:59:54;;;;;;;8.13;4.47;;;;;;;;;;5003955;28;20067;-87
2023/01/01 06:02:20;;;;;;;8.60;4.70;;;;;;;;;;5021628;28;20030;-86
2023/01/01 06:04:45;;;;;;;7.53;4.47;;;;;;;;;;5019462;28;20453;-87
2023/01/01 06:07:11;;;;;;;7.95;4.53;;;;;;;;;;5020172;28;20038;-86
2023/01/01 06:09:36;;;;;;;8.10;4.20;;;;;;;;;;5021276;28;20046;-87
2023/01/01 06:12:02;;;;;;;5.97;3.85;;;;;;;;;;5022025;28;20041;-86
2023/01/01 06:14:27;;;;;;;7.25;3.70;;;;;;;;;;5020110;28;20037;-87
2023/01/01 06:16:53;;;;;;;6.18;3.55;;;;;;;;;;5022162;28;20080;-87
2023/01/01 06:19:18;;;;;;;6.40;3.78;;;;;;;;;;5021628;28;20038;-85
2023/01/01 06:21:44;;;;;;;7.60;3.72;;;;;;;;;;5004100;28;20033;-85
2023/01/01 06:24:09;;;;;;;6.80;3.85;;;;;;;;;;5003624;28;20422;-87
2023/01/01 06:26:35;;;;;;;6.63;3.75;;;;;;;;;;5020720;28;20087;-88
2023/01/01 06:29:01;;;;;;;6.63;3.80;;;;;;;;;;5004101;28;20042;-86
2023/01/01 06:31:28;;;;;;;7.30;4.20;;;;;;;;;;5019673;28;20064;-88
2023/01/01 06:33:54;;;;;;;5.80;3.70;;;;;;;;;;5019759;28;20037;-87
2023/01/01 06:36:22;;;;;;;5.68;3.65;;;;;;;;;;5019286;28;20042;-87
2023/01/01 06:38:50;;;;;;;6.43;3.70;;;;;;;;;;5020563;28;20034;-87
2023/01/01 06:41:19;;;;;;;5.72;3.38;;;;;;;;;;5004379;28;20498;-87
2023/01/01 06:43:45;;;;;;;6.03;3.55;;;;;;;;;;5020045;28;20034;-86
2023/01/01 06:46:22;;;;;;;5.28;3.10;;;;;;;;;;5019479;28;20062;-86
2023/01/01 06:48:50;;;;;;;5.85;3.30;;;;;;;;;;5019568;28;20049;-88
2023/01/01 06:51:18;;;;;;;6.07;3.53;;;;;;;;;;5020210;28;20029;-86
2023/01/01 06:53:44;;;;;;;6.63;3.60;;;;;;;;;;5021494;28;20034;-87
2023/01/01 06:56:10;;;;;;;6.50;3.33;;;;;;;;;;5004136;28;20038;-86
2023/01/01 06:58:35;;;;;;;6.25;3.72;;;;;;;;;;5003145;28;20033;-85
2023/01/01 07:01:06;;;;;;;5.35;3.47;;;;;;;;;;5017702;28;20037;-86
2023/01/01 07:03:33;;;;;;;7.10;3.83;;;;;;;;;;5000513;28;20588;-86
2023/01/01 07:05:58;;;;;;;6.13;3.50;;;;;;;;;;4999926;28;20414;-87
2023/01/01 07:08:24;;;;;;;6.68;3.25;;;;;;;;;;5017589;28;20030;-86
2023/01/01 07:10:49;;;;;;;9.45;3.83;;;;;;;;;;5017137;28;20037;-86
2023/01/01 07:13:15;;;;;;;5.60;3.20;;;;;;;;;;5017603;28;20064;-86
2023/01/01 07:15:43;;;;;;;4.75;3.03;;;;;;;;;;5017412;28;20053;-86
2023/01/01 07:18:09;;;;;;;4.97;2.92;;;;;;;;;;5016514;28;20084;-86
2023/01/01 07:20:34;;;;;;;7.70;3.60;;;;;;;;;;5000197;28;20041;-86
2023/01/01 07:23:01;;;;;;;6.50;3.70;;;;;;;;;;5016469;28;20073;-86
2023/01/01 07:25:27;;;;;;;5.28;3.17;;;;;;;;;;5016852;28;20045;-86
2023/01/01 07:27:52;;;;;;;7.30;3.90;;;;;;;;;;4999528;28;20038;-86
2023/01/01 07:30:17;;;;;;;5.72;3.53;;;;;;;;;;5018217;28;20034;-86
2023/01/01 07:32:43;;;;;;;5.38;3.33;;;;;;;;;;4999358;28;20068;-87
2023/01/01 07:35:09;;;;;;;7.65;3.50;;;;;;;;;;5016869;28;20486;-85
2023/01/01 07:37:34;;;;;;;6.15;3.30;;;;;;;;;;5014471;28;20034;-85
2023/01/01 07:40:00;;;;;;;5.15;3.10;;;;;;;;;;5015082;28;20103;-86
2023/01/01 07:42:26;;;;;;;6.05;2.90;;;;;;;;;;5013894;28;20038;-87
2023/01/01 07:44:51;;;;;;;5.88;3.30;;;;;;;;;;5014393;28;20045;-87
2023/01/01 07:47:24;;;;;;;4.85;3.20;;;;;;;;;;5013216;28;20038;-86
2023/01/01 07:49:51;;;;;;;;;;;;;;;;;;5016907;28;20525;-87
2023/01/01 07:52:16;;;;;;;6.15;3.20;;;;;;;;;;5016119;28;19916;-87
2023/01/01 07:54:42;;;;;;;6.95;3.40;;;;;;;;;;5014588;28;20030;-86
2023/01/01 07:57:08;;;;;;;5.20;3.30;;;;;;;;;;5015208;28;20034;-85
2023/01/01 07:59:34;;;;;;;6.25;3.80;;;;;;;;;;5018034;28;20042;-86
2023/01/01 08:01:59;;;;;;;11.07;5.57;;;;;;;;;;5014513;28;20038;-86
2023/01/01 08:04:28;;;;;;;11.45;5.38;;;;;;;;;;5018358;28;20053;-85
2023/01/01 08:06:54;;;;;;;7.57;3.90;;;;;;;;;;5006861;28;20048;-85
2023/01/01 08:09:19;;;;;;;7.07;4.57;;;;;;;;;;5026444;28;20038;-86
2023/01/01 08:11:45;;;;;;;9.02;4.43;;;;;;;;;;5024654;28;20049;-86
2023/01/01 08:14:11;;;;;;;6.78;4.00;;;;;;;;;;5026192;28;20034;-85
2023/01/01 08:16:37;;;;;;;8.27;4.03;;;;;;;;;;5026425;28;20038;-85
2023/01/01 08:19:03;;;;;;;7.05;4.15;;;;;;;;;;5025023;28;20037;-86
2023/01/01 08:21:28;;;;;;;10.20;4.40;;;;;;;;;;5024435;28;20038;-85
2023/01/01 08:23:54;;;;;;;6.57;3.53;;;;;;;;;;5026918;28;20030;-85
2023/01/01 08:26:29;;;;;;;6.45;3.83;;;;;;;;;;5024816;28;20072;-86
2023/01/01 08:28:54;;;;;;;6.35;3.75;;;;;;;;;;5024569;28;20034;-86
2023/01/01 08:31:20;;;;;;;5.95;3.83;;;;;;;;;;5023981;28;20105;-85
2023/01/01 08:33:45;;;;;;;6.03;3.78;;;;;;;;;;5022178;28;20091;-87
2023/01/01 08:36:12;;;;;;;6.10;3.55;;;;;;;;;;5020323;28;20026;-87
2023/01/01 08:38:38;;;;;;;6.65;4.10;;;;;;;;;;5004628;28;20041;-87
2023/01/01 08:41:03;;;;;;;7.35;3.90;;;;;;;;;;5019832;28;20034;-87
2023/01/01 08:43:29;;;;;;;6.03;3.53;;;;;;;;;;5018849;28;20078;-86
2023/01/01 08:45:54;;;;;;;6.30;3.78;;;;;;;;;;5016202;28;20038;-86
2023/01/01 08:48:21;;;;;;;6.20;3.70;;;;;;;;;;5013942;28;20042;-87
2023/01/01 08:50:58;;;;;;;6.32;3.60;;;;;;;;;;4997741;28;20491;-86
2023/01/01 08:53:24;;;;;;;7.30;3.75;;;;;;;;;;5002116;28;20048;-87
2023/01/01 08:56:19;;;;;;;5.53;3.38;;;;;;;;;;5020738;28;20483;-87
2023/01/01 08:58:45;;;;;;;5.72;3.80;;;;;;;;;;4989211;28;20046;-87
2023/01/01 09:01:10;;;;;;;7.25;4.10;;;;;;;;;;5000902;28;20073;-87
2023/01/01 09:03:36;;;;;;;5.35;3.15;;;;;;;;;;5016518;28;20033;-87
2023/01/01 09:06:02;;;;;;;7.45;3.63;;;;;;;;;;5019088;28;20042;-87
2023/01/01 09:08:28;;;;;;;7.10;3.90;;;;;;;;;;5000623;28;20038;-87
2023/01/01 09:10:58;;;;;;;6.80;3.85;;;;;;;;;;5019121;28;20505;-86
2023/01/01 09:13:23;;;;;;;4.72;2.97;;;;;;;;;;5019952;28;20045;-86
2023/01/01 09:15:49;;;;;;;4.72;2.92;;;;;;;;;;5017648;28;20037;-88
2023/01/01 09:18:14;;;;;;;5.53;2.83;;;;;;;;;;5016430;28;20171;-88
2023/01/01 09:20:40;;;;;;;4.70;2.55;;;;;;;;;;5001129;28;20036;-88
2023/01/01 09:23:06;;;;;;;5.47;2.72;;;;;;;;;;5019908;28;20092;-86
2023/01/01 09:25:33;;;;;;;4.53;2.72;;;;;;;;;;5020277;28;20026;-87
2023/01/01 09:28:01;;;;;;;5.70;3.20;;;;;;;;;;5020682;28;20113;-87
2023/01/01 09:30:26;;;;;;;4.88;3.00;;;;;;;;;;5021174;28;20064;-87
2023/01/01 09:32:52;;;;;;;7.78;3.13;;;;;;;;;;5019812;28;20038;-87
2023/01/01 09:35:17;;;;;;;6.05;3.08;;;;;;;;;;5019736;28;20069;-86
2023/01/01 09:37:43;;;;;;;5.70;3.50;;;;;;;;;;5004219;28;20568;-86
2023/01/01 09:40:25;;;;;;;4.72;3.00;;;;;;;;;;5023353;28;20045;-86
2023/01/01 09:43:05;;;;;;;5.00;2.90;;;;;;;;;;5009168;28;20486;-86
2023/01/01 09:45:39;;;;;;;3.92;2.72;;;;;;;;;;5024475;28;20037;-85
2023/01/01 09:48:10;;;;;;;6.43;3.25;;;;;;;;;;5026372;28;20040;-87
2023/01/01 09:50:41;;;;;;;5.45;3.00;;;;;;;;;;5025658;28;20041;-87
2023/01/01 09:53:20;;;;;;;4.60;2.80;;;;;;;;;;5025914;28;20030;-85
2023/01/01 09:56:02;;;;;;;8.50;2.90;;;;;;;;;;5007565;28;20108;-85
2023/01/01 09:58:36;;;;;;;5.75;2.65;;;;;;;;;;5025441;28;20385;-86
2023/01/01 10:01:40;;;;;;;5.78;2.65;;;;;;;;;;5024321;28;20033;-85
2023/01/01 10:04:21;;;;;;;4.18;2.40;;;;;;;;;;5025430;28;20058;-86
2023/01/01 10:06:59;;;;;;;5.53;2.70;;;;;;;;;;5026594;28;20046;-87
2023/01/01 10:09:34;;;;;;;4.53;2.53;;;;;;;;;;5026768;28;20120;-86
2023/01/01 10:12:03;;;;;;;4.10;2.50;;;;;;;;;;5009514;28;20034;-85
2023/01/01 10:14:34;;;;;;;3.80;2.33;;;;;;;;;;5026049;28;20037;-86
2023/01/01 10:17:21;;;;;;;5.38;2.75;;;;;;;;;;5026666;28;20037;-87
2023/01/01 10:19:57;;;;;;;4.20;2.70;;;;;;;;;;5028204;28;20120;-85
2023/01/01 10:22:24;;;;;;;4.03;2.70;;;;;;;;;;5027267;28;20391;-87
2023/01/01 10:25:06;;;;;;;3.85;2.47;;;;;;;;;;5010755;28;20126;-85
2023/01/01 10:27:42;;;;;;;4.55;2.70;;;;;;;;;;5026767;28;20042;-87
2023/01/01 10:30:17;;;;;;;5.47;2.90;;;;;;;;;;5026443;28;20038;-85
2023/01/01 10:32:49;;;;;;;8.20;3.00;;;;;;;;;;5026925;28;20044;-86
2023/01/01 10:35:17;;;;;;;5.85;2.88;;;;;;;;;;5027472;28;20045;-86
2023/01/01 10:37:43;;;;;;;4.97;2.80;;;;;;;;;;5027317;28;20061;-85
2023/01/01 10:40:23;;;;;;;5.28;3.05;;;;;;;;;;5026190;28;20041;-84
2023/01/01 10:42:51;;;;;;;4.10;2.75;;;;;;;;;;5025440;28;20041;-87
2023/01/01 10:45:22;;;;;;;5.25;2.97;;;;;;;;;;5026116;28;20041;-85
2023/01/01 10:48:11;;;;;;;3.80;2.60;;;;;;;;;;5025040;28;20042;-86
2023/01/01 10:50:50;;;;;;;4.78;2.90;;;;;;;;;;5026803;28;20095;-85
2023/01/01 10:53:25;;;;;;;4.63;2.70;;;;;;;;;;5023292;28;20037;-87
2023/01/01 10:56:04;;;;;;;4.82;2.90;;;;;;;;;;5022531;28;20044;-87
2023/01/01 10:58:37;;;;;;;6.13;3.17;;;;;;;;;;5023684;28;20063;-86
2023/01/01 11:01:05;;;;;;;6.53;3.55;;;;;;;;;;5025922;28;20030;-87
2023/01/01 11:03:32;;;;;;;4.13;2.60;;;;;;;;;;5025852;28;20030;-86
2023/01/01 11:06:13;;;;;;;4.82;2.90;;;;;;;;;;5025306;28;20065;-84
2023/01/01 11:08:47;;;;;;;5.55;2.50;;;;;;;;;;5022996;28;20034;-84
2023/01/01 11:11:24;;;;;;;4.50;2.40;;;;;;;;;;5021846;28;20037;-85
2023/01/01 11:13:52;;;;;;;6.30;2.50;;;;;;;;;;5018383;28;20033;-85
2023/01/01 11:16:17;;;;;;;3.30;2.33;;;;;;;;;;5031524;28;20031;-86
2023/01/01 11:18:43;;;;;;;4.53;2.30;;;;;;;;;;5039122;28;20056;-85
2023/01/01 11:21:08;;;;;;;3.47;2.15;;;;;;;;;;5038934;28;20034;-85
2023/01/01 11:23:36;;;;;;;4.45;2.70;;;;;;;;;;5039446;28;20482;-84
2023/01/01 11:26:25;;;;;;;6.18;2.50;;;;;;;;;;5028580;28;20048;-88
2023/01/01 11:29:19;;;;;;;4.60;2.97;;;;;;;;;;5032330;28;20044;-86
2023/01/01 11:31:46;;;;;;;5.88;2.72;;;;;;;;;;5036624;28;20036;-88
2023/01/01 11:34:32;;;;;;;4.53;2.78;;;;;;;;;;5037524;28;20608;-86
2023/01/01 11:37:07;;;;;;;5.43;2.35;;;;;;;;;;5037663;28;20414;-84
2023/01/01 11:39:36;;;;;;;4.53;2.70;;;;;;;;;;5035923;28;20062;-86
2023/01/01 11:42:02;;;;;;;4.57;2.30;;;;;;;;;;5036408;28;20036;-87
2023/01/01 11:44:31;;;;;;;4.60;2.30;;;;;;;;;;5036186;28;20021;-87
2023/01/01 11:46:57;;;;;;;4.57;2.78;;;;;;;;;;5035563;28;20042;-86
2023/01/01 11:49:25;;;;;;;4.68;2.72;;;;;;;;;;5036730;28;20405;-87
2023/01/01 11:51:51;;;;;;;6.60;3.90;;;;;;;;;;5036371;28;20037;-86
2023/01/01 11:54:23;;;;;;;6.28;3.60;;;;;;;;;;5036913;28;20124;-86
2023/01/01 11:56:53;;;;;;;5.18;3.30;;;;;;;;;;5036699;28;20037;-87
2023/01/01 11:59:24;;;;;;;5.88;3.80;;;;;;;;;;5036351;28;20418;-87
2023/01/01 12:01:59;;;;;;;5.90;3.10;;;;;;;;;;5020373;28;20037;-87
2023/01/01 12:04:36;;;;;;;5.95;3.00;;;;;;;;;;5035681;28;20342;-86
2023/01/01 12:07:07;;;;;;;5.50;3.20;;;;;;;;;;5019391;28;20061;-87
2023/01/01 12:09:51;;;;;;;5.35;2.97;;;;;;;;;;5037039;28;20087;-87
2023/01/01 12:12:27;;;;;;;;;;;;;;;;;;5020217;28;20037;-87
2023/01/01 12:15:17;;;;;;;4.90;2.67;;;;;;;;;;5034442;28;19939;-88
2023/01/01 12:17:48;;;;;;;4.80;2.65;;;;;;;;;;5036994;28;20037;-86
2023/01/01 12:20:20;;;;;;;5.93;2.85;;;;;;;;;;5038015;28;20038;-86
2023/01/01 12:22:46;;;;;;;4.75;2.78;;;;;;;;;;5037373;28;20069;-87
2023/01/01 12:25:18;;;;;;;5.07;2.65;;;;;;;;;;5019265;28;20521;-87
2023/01/01 12:28:08;;;;;;;5.97;2.53;;;;;;;;;;5036172;28;20045;-87
2023/01/01 12:30:34;;;;;;;4.63;2.42;;;;;;;;;;5036420;28;20124;-87
2023/01/01 12:33:11;;;;;;;4.88;2.83;;;;;;;;;;5020698;28;20454;-88
2023/01/01 12:35:46;;;;;;;4.65;2.80;;;;;;;;;;5038493;28;20097;-86
2023/01/01 12:38:39;;;;;;;3.72;2.40;;;;;;;;;;5042119;28;20048;-87
2023/01/01 12:41:07;;;;;;;5.82;2.88;;;;;;;;;;5041386;28;20089;-87
2023/01/01 12:43:43;;;;;;;4.57;2.80;;;;;;;;;;5041914;28;20037;-88
2023/01/01 12:46:24;;;;;;;6.40;2.50;;;;;;;;;;5040927;28;20037;-87
2023/01/01 12:49:14;;;;;;;5.45;2.80;;;;;;;;;;5041655;28;20524;-87
2023/01/01 12:51:58;;;;;;;3.60;2.25;;;;;;;;;;5039593;28;20044;-86
2023/01/01 12:54:24;;;;;;;6.40;2.65;;;;;;;;;;5035531;28;20040;-87
2023/01/01 12:57:18;;;;;;;4.45;2.17;;;;;;;;;;5035741;28;20030;-86
2023/01/01 12:59:49;;;;;;;4.25;2.03;;;;;;;;;;5033309;28;20132;-87
2023/01/01 13:02:23;;;;;;;5.22;2.58;;;;;;;;;;5040406;28;20034;-86
2023/01/01 13:04:55;;;;;;;5.93;2.70;;;;;;;;;;5038447;28;20037;-87
2023/01/01 13:07:41;;;;;;;5.22;2.50;;;;;;;;;;5022752;28;20045;-86
2023/01/01 13:10:22;;;;;;;4.65;2.65;;;;;;;;;;5040292;28;20037;-86
2023/01/01 13:12:49;;;;;;;5.45;3.38;;;;;;;;;;5042765;28;20360;-86
2023/01/01 13:15:36;;;;;;;6.13;3.90;;;;;;;;;;5039497;28;20034;-88
2023/01/01 13:18:06;;;;;;;8.35;3.35;;;;;;;;;;5023574;28;20494;-87
2023/01/01 13:20:36;;;;;;;9.10;4.20;;;;;;;;;;5022561;28;20132;-87
2023/01/01 13:23:02;;;;;;;6.05;3.75;;;;;;;;;;5022423;28;20138;-87
2023/01/01 13:25:28;;;;;;;6.82;3.85;;;;;;;;;;5038326;28;20425;-86
2023/01/01 13:27:56;;;;;;;4.78;3.22;;;;;;;;;;5040665;28;20547;-86
2023/01/01 13:30:34;;;;;;;8.25;3.40;;;;;;;;;;5039365;28;20080;-87
2023/01/01 13:33:28;;;;;;;4.82;3.00;;;;;;;;;;5038954;28;20103;-86
2023/01/01 13:36:10;;;;;;;6.80;4.20;;;;;;;;;;5039782;28;20113;-86
2023/01/01 13:38:50;;;;;;;7.40;3.40;;;;;;;;;;5040301;28;20057;-86
2023/01/01 13:41:29;;;;;;;5.88;2.80;;;;;;;;;;5022554;28;20030;-88
2023/01/01 13:43:58;;;;;;;4.55;2.67;;;;;;;;;;5040155;28;20025;-87
2023/01/01 13:46:38;;;;;;;6.05;3.53;;;;;;;;;;5039338;28;20401;-86
2023/01/01 13:49:03;;;;;;;6.47;3.30;;;;;;;;;;5038429;28;20456;-86
2023/01/01 13:51:56;;;;;;;6.63;3.50;;;;;;;;;;5038953;28;20021;-86
2023/01/01 13:54:43;;;;;;;5.30;3.50;;;;;;;;;;5037827;28;20087;-87
2023/01/01 13:57:30;;;;;;;5.10;2.90;;;;;;;;;;5039040;28;20059;-85
2023/01/01 14:00:00;;;;;;;5.10;3.17;;;;;;;;;;5004489;28;20121;-86
2023/01/01 14:02:39;;;;;;;4.40;2.78;;;;;;;;;;5021942;28;20041;-86
2023/01/01 14:05:34;;;;;;;5.22;2.92;;;;;;;;;;5020546;28;20117;-86
2023/01/01 14:08:00;;;;;;;4.60;2.80;;;;;;;;;;5018330;28;20042;-86
2023/01/01 14:10:28;;;;;;;6.88;2.90;;;;;;;;;;5018163;28;20034;-87
2023/01/01 14:13:15;;;;;;;4.82;2.80;;;;;;;;;;5021453;28;20518;-85
2023/01/01 14:16:02;;;;;;;4.40;2.80;;;;;;;;;;5026166;28;20037;-86
2023/01/01 14:18:35;;;;;;;4.75;2.70;;;;;;;;;;5029331;28;20552;-84
2023/01/01 14:21:01;;;;;;;5.25;2.60;;;;;;;;;;5028120;28;20080;-87
2023/01/01 14:23:33;;;;;;;8.05;3.72;;;;;;;;;;5014641;28;20041;-86
2023/01/01 14:26:01;;;;;;;6.60;3.10;;;;;;;;;;5043123;28;20042;-86
2023/01/01 14:28:32;;;;;;;6.43;3.40;;;;;;;;;;5040638;28;20052;-86
2023/01/01 14:31:02;;;;;;;6.10;3.20;;;;;;;;;;5041441;28;20030;-86
2023/01/01 14:33:29;;;;;;;4.15;2.80;;;;;;;;;;5021599;28;20033;-87
2023/01/01 14:36:15;;;;;;;4.00;2.75;;;;;;;;;;5039624;28;20394;-87
2023/01/01 14:38:43;;;;;;;8.85;2.88;;;;;;;;;;5042753;28;20085;-88
2023/01/01 14:41:09;;;;;;;6.22;3.60;;;;;;;;;;5044483;28;20045;-85
2023/01/01 14:43:40;;;;;;;9.77;3.90;;;;;;;;;;5042311;28;20029;-88
2023/01/01 14:46:06;;;;;;;7.47;3.67;;;;;;;;;;5044681;28;20556;-88
2023/01/01 14:48:33;;;;;;;6.20;3.92;;;;;;;;;;5026824;28;20382;-88
2023/01/01 14:50:59;;;;;;;8.27;4.03;;;;;;;;;;5043036;28;20514;-88
2023/01/01 14:53:32;;;;;;;5.60;3.78;;;;;;;;;;5025794;28;20140;-88
2023/01/01 14:55:58;;;;;;;5.10;3.33;;;;;;;;;;5042786;28;20124;-88
2023/01/01 14:58:28;;;;;;;6.50;3.15;;;;;;;;;;5026055;28;20069;-89
2023/01/01 15:01:13;;;;;;;6.15;3.05;;;;;;;;;;5043104;28;20041;-87
2023/01/01 15:03:38;;;;;;;5.05;3.22;;;;;;;;;;5044691;28;20034;-86
2023/01/01 15:06:06;;;;;;;6.05;3.25;;;;;;;;;;5043344;28;20064;-87
2023/01/01 15:08:31;;;;;;;4.93;3.40;;;;;;;;;;5027391;28;20116;-88
2023/01/01 15:10:57;;;;;;;7.30;3.10;;;;;;;;;;5043742;28;20033;-86
2023/01/01 15:13:27;;;;;;;5.03;3.00;;;;;;;;;;5038726;28;20033;-87
2023/01/01 15:15:55;;;;;;;5.60;3.30;;;;;;;;;;5020622;28;20095;-86
2023/01/01 15:18:37;;;;;;;7.05;3.60;;;;;;;;;;5037782;28;20025;-88
2023/01/01 15:21:16;;;;;;;7.65;3.45;;;;;;;;;;5036445;28;20042;-88
2023/01/01 15:23:52;;;;;;;5.47;3.35;;;;;;;;;;5034824;28;20092;-88
2023/01/01 15:26:30;;;;;;;8.77;4.97;;;;;;;;;;5034020;28;20060;-86
2023/01/01 15:28:58;;;;;;;11.05;5.63;;;;;;;;;;5036260;28;20040;-85
2023/01/01 15:31:33;;;;;;;9.55;5.30;;;;;;;;;;5037172;28;20490;-85
2023/01/01 15:33:59;;;;;;;10.98;6.10;;;;;;;;;;5035952;28;20034;-85
2023/01/01 15:36:24;;;;;;;10.88;4.82;;;;;;;;;;5036301;28;20040;-90
2023/01/01 15:38:51;;;;;;;14.93;6.30;;;;;;;;;;5034623;28;20113;-89
2023/01/01 15:41:39;;;;;;;17.95;8.25;;;;;;;;;;5033991;28;20033;-90
2023/01/01 15:44:35;;;;;;;10.50;5.13;;;;;;;;;;5032768;28;20076;-89
2023/01/01 15:47:25;;;;;;;11.15;5.88;;;;;;;;;;5032929;28;20055;-89
2023/01/01 15:50:09;;;;;;;12.23;6.70;;;;;;;;;;5032432;28;20083;-88
2023/01/01 15:52:36;;;;;;;10.02;5.38;;;;;;;;;;5035270;28;20037;-88
2023/01/01 15:55:01;;;;;;;5.45;3.30;;;;;;;;;;5033512;28;20025;-89
2023/01/01 15:57:27;;;;;;;5.70;3.63;;;;;;;;;;5033427;28;20052;-88
2023/01/01 15:59:54;;;;;;;12.73;7.07;;;;;;;;;;5033975;28;20387;-88
2023/01/01 16:02:25;;;;;;;11.25;6.50;;;;;;;;;;5018229;28;20057;-88
2023/01/01 16:04:51;;;;;;;11.00;6.22;;;;;;;;;;5033299;28;20406;-88
2023/01/01 16:07:22;;;;;;;12.38;6.10;;;;;;;;;;5034278;28;20033;-87
2023/01/01 16:09:48;;;;;;;21.70;11.57;;;;;;;;;;5034513;28;20049;-88
2023/01/01 16:12:13;;;;;;;12.43;7.68;;;;;;;;;;5034536;28;20040;-88
2023/01/01 16:14:39;;;;;;;12.80;7.40;;;;;;;;;;5035455;28;20030;-88
2023/01/01 16:17:05;;;;;;;10.10;5.95;;;;;;;;;;5035461;28;20030;-86
2023/01/01 16:19:31;;;;;;;12.85;6.55;;;;;;;;;;5020957;28;20104;-86
2023/01/01 16:21:57;;;;;;;14.30;5.95;;;;;;;;;;5037388;28;20521;-85
2023/01/01 16:24:23;;;;;;;11.60;5.78;;;;;;;;;;5036677;28;20041;-86
2023/01/01 16:26:49;;;;;;;12.10;5.38;;;;;;;;;;5036973;28;20513;-87
2023/01/01 16:29:15;;;;;;;9.48;5.10;;;;;;;;;;5036681;28;20038;-85
2023/01/01 16:31:42;;;;;;;7.55;4.28;;;;;;;;;;5021319;28;20037;-85
2023/01/01 16:34:13;;;;;;;11.38;5.95;;;;;;;;;;5041161;28;20038;-84
2023/01/01 16:36:39;;;;;;;14.73;7.97;;;;;;;;;;5025774;28;20493;-86
2023/01/01 16:39:04;;;;;;;13.68;8.43;;;;;;;;;;5025924;28;20037;-85
2023/01/01 16:41:29;;;;;;;14.00;7.85;;;;;;;;;;5044509;28;20044;-84
2023/01/01 16:43:56;;;;;;;14.10;8.07;;;;;;;;;;5026111;28;20025;-85
2023/01/01 16:46:22;;;;;;;15.63;9.20;;;;;;;;;;5045288;28;20044;-85
2023/01/01 16:48:48;;;;;;;16.10;8.57;;;;;;;;;;5045652;28;20053;-84
2023/01/01 16:51:24;;;;;;;11.32;6.72;;;;;;;;;;5044795;28;20034;-85
2023/01/01 16:53:49;;;;;;;10.20;6.50;;;;;;;;;;5043692;28;20037;-85
2023/01/01 16:56:16;;;;;;;10.82;5.93;;;;;;;;;;5044211;28;20025;-86
2023/01/01 16:58:41;;;;;;;15.70;8.50;;;;;;;;;;5027929;28;20033;-86
2023/01/01 17:01:07;;;;;;;11.73;7.88;;;;;;;;;;5045942;28;20044;-85
2023/01/01 17:03:33;;;;;;;11.38;6.65;;;;;;;;;;5043863;28;20198;-86
2023/01/01 17:06:03;;;;;;;7.75;4.60;;;;;;;;;;5041701;28;20042;-84
2023/01/01 17:08:28;;;;;;;6.25;4.25;;;;;;;;;;5028528;28;20110;-84
2023/01/01 17:11:10;;;;;;;8.18;4.10;;;;;;;;;;5044369;28;20030;-85
2023/01/01 17:13:37;;;;;;;7.65;3.75;;;;;;;;;;5042432;28;20026;-85
2023/01/01 17:16:03;;;;;;;4.53;2.60;;;;;;;;;;5043666;28;20049;-86
2023/01/01 17:18:29;;;;;;;4.78;2.70;;;;;;;;;;5025759;28;20036;-86
2023/01/01 17:21:02;;;;;;;4.72;2.60;;;;;;;;;;5025559;28;20048;-86
2023/01/01 17:23:27;;;;;;;3.80;2.40;;;;;;;;;;5047065;28;20044;-85
2023/01/01 17:25:53;;;;;;;4.13;2.65;;;;;;;;;;5045506;28;20046;-84
2023/01/01 17:28:18;;;;;;;5.65;2.90;;;;;;;;;;5045964;28;20035;-88
2023/01/01 17:30:43;;;;;;;4.88;2.60;;;;;;;;;;5034902;28;20413;-88
2023/01/01 17:33:09;;;;;;;4.93;2.65;;;;;;;;;;5038014;28;20030;-90
2023/01/01 17:35:37;;;;;;;4.80;3.00;;;;;;;;;;5046575;28;20041;-90
2023/01/01 17:38:02;;;;;;;4.05;2.58;;;;;;;;;;5018269;28;20049;-90
2023/01/01 17:40:28;;;;;;;4.65;2.67;;;;;;;;;;5034226;28;20394;-90
2023/01/01 17:42:53;;;;;;;7.50;3.88;;;;;;;;;;5034454;28;20033;-88
2023/01/01 17:45:19;;;;;;;4.70;3.08;;;;;;;;;;5017593;28;20029;-90